sensor_id;sensor_type;location;lat;lon;timestamp;temperature;humidity
16958;DHT22;8595;52.542;11.974;2023-05-18T00:00:54;8.80;99.90
16958;DHT22;8595;52.542;11.974;2023-05-18T00:03:23;8.80;99.90
16958;DHT22;8595;52.542;11.974;2023-05-18T00:05:50;8.90;99.90
16958;DHT22;8595;52.542;11.974;2023-05-18T00:08:17;8.90;99.90
16958;DHT22;8595;52.542;11.974;2023-05-18T00:10:43;8.80;99.90
16958;DHT22;8595;52.542;11.974;2023-05-18T00:13:10;8.80;99.90
16958;DHT22;8595;52.542;11.974;2023-05-18T00:15:38;8.70;99.90
16958;DHT22;8595;52.542;11.974;2023-05-18T00:18:05;8.50;99.90
16958;DHT22;8595;52.542;11.974;2023-05-18T00:20:31;8.50;99.90
16958;DHT22;8595;52.542;11.974;2023-05-18T00:22:59;8.40;99.90
16958;DHT22;8595;52.542;11.974;2023-05-18T00:25:26;8.40;99.90
16958;DHT22;8595;52.542;11.974;2023-05-18T00:27:53;8.40;99.90
16958;DHT22;8595;52.542;11.974;2023-05-18T00:30:20;8.30;99.90
16958;DHT22;8595;52.542;11.974;2023-05-18T00:32:50;8.40;99.90
16958;DHT22;8595;52.542;11.974;2023-05-18T00:35:17;8.40;99.90
16958;DHT22;8595;52.542;11.974;2023-05-18T00:37:44;8.30;99.90
16958;DHT22;8595;52.542;11.974;2023-05-18T00:40:11;8.30;99.90
16958;DHT22;8595;52.542;11.974;2023-05-18T00:42:39;8.20;99.90
16958;DHT22;8595;52.542;11.974;2023-05-18T00:45:07;8.10;99.90
16958;DHT22;8595;52.542;11.974;2023-05-18T00:47:34;8.00;99.90
16958;DHT22;8595;52.542;11.974;2023-05-18T00:50:03;8.00;99.90
16958;DHT22;8595;52.542;11.974;2023-05-18T00:52:30;8.10;99.90
16958;DHT22;8595;52.542;11.974;2023-05-18T00:54:58;8.10;99.90
16958;DHT22;8595;52.542;11.974;2023-05-18T00:57:25;8.00;99.90
16958;DHT22;8595;52.542;11.974;2023-05-18T00:59:53;8.00;99.90
16958;DHT22;8595;52.542;11.974;2023-05-18T01:02:22;8.00;99.90
16958;DHT22;8595;52.542;11.974;2023-05-18T01:04:48;7.90;99.90
16958;DHT22;8595;52.542;11.974;2023-05-18T01:07:18;7.90;99.90
16958;DHT22;8595;52.542;11.974;2023-05-18T01:09:47;7.90;99.90
16958;DHT22;8595;52.542;11.974;2023-05-18T01:12:19;7.90;99.90
16958;DHT22;8595;52.542;11.974;2023-05-18T01:14:50;7.90;99.90
16958;DHT22;8595;52.542;11.974;2023-05-18T01:17:24;7.90;99.90
16958;DHT22;8595;52.542;11.974;2023-05-18T01:20:19;8.00;99.90
16958;DHT22;8595;52.542;11.974;2023-05-18T01:23:04;8.00;99.90
16958;DHT22;8595;52.542;11.974;2023-05-18T01:25:45;8.00;99.90
16958;DHT22;8595;52.542;11.974;2023-05-18T01:28:17;7.80;99.90
16958;DHT22;8595;52.542;11.974;2023-05-18T01:30:45;7.70;99.90
16958;DHT22;8595;52.542;11.974;2023-05-18T01:33:12;7.70;99.90
16958;DHT22;8595;52.542;11.974;2023-05-18T01:35:39;7.70;99.90
16958;DHT22;8595;52.542;11.974;2023-05-18T01:38:13;7.70;99.90
16958;DHT22;8595;52.542;11.974;2023-05-18T01:40:45;7.60;99.90
16958;DHT22;8595;52.542;11.974;2023-05-18T01:43:17;7.60;99.90
16958;DHT22;8595;52.542;11.974;2023-05-18T01:45:46;7.60;99.90
16958;DHT22;8595;52.542;11.974;2023-05-18T01:48:17;7.50;99.90
16958;DHT22;8595;52.542;11.974;2023-05-18T01:50:47;7.50;99.90
16958;DHT22;8595;52.542;11.974;2023-05-18T01:53:22;7.40;99.90
16958;DHT22;8595;52.542;11.974;2023-05-18T01:55:52;7.40;99.90
16958;DHT22;8595;52.542;11.974;2023-05-18T01:58:24;7.30;99.90
16958;DHT22;8595;52.542;11.974;2023-05-18T02:00:51;7.30;99.90
16958;DHT22;8595;52.542;11.974;2023-05-18T02:03:18;7.30;99.90
16958;DHT22;8595;52.542;11.974;2023-05-18T02:05:45;7.30;99.90
16958;DHT22;8595;52.542;11.974;2023-05-18T02:08:11;7.40;99.90
16958;DHT22;8595;52.542;11.974;2023-05-18T02:10:38;7.40;99.90
16958;DHT22;8595;52.542;11.974;2023-05-18T02:13:05;7.40;99.90
16958;DHT22;8595;52.542;11.974;2023-05-18T02:15:33;7.50;99.90
16958;DHT22;8595;52.542;11.974;2023-05-18T02:18:00;7.60;99.90
16958;DHT22;8595;52.542;11.974;2023-05-18T02:20:27;7.60;99.90
16958;DHT22;8595;52.542;11.974;2023-05-18T02:22:57;7.60;99.90
16958;DHT22;8595;52.542;11.974;2023-05-18T02:25:24;7.60;99.90
16958;DHT22;8595;52.542;11.974;2023-05-18T02:27:51;7.60;99.90
16958;DHT22;8595;52.542;11.974;2023-05-18T02:30:18;7.50;99.90
16958;DHT22;8595;52.542;11.974;2023-05-18T02:32:46;7.60;99.90
16958;DHT22;8595;52.542;11.974;2023-05-18T02:35:14;7.50;99.90
16958;DHT22;8595;52.542;11.974;2023-05-18T02:37:43;7.50;99.90
16958;DHT22;8595;52.542;11.974;2023-05-18T02:40:11;7.50;99.90
16958;DHT22;8595;52.542;11.974;2023-05-18T02:42:39;7.50;99.90
16958;DHT22;8595;52.542;11.974;2023-05-18T02:45:06;7.40;99.90
16958;DHT22;8595;52.542;11.974;2023-05-18T02:47:34;7.40;99.90
16958;DHT22;8595;52.542;11.974;2023-05-18T02:50:02;7.40;99.90
16958;DHT22;8595;52.542;11.974;2023-05-18T02:52:29;7.40;99.90
16958;DHT22;8595;52.542;11.974;2023-05-18T02:54:55;7.30;99.90
16958;DHT22;8595;52.542;11.974;2023-05-18T02:57:22;7.20;99.90
16958;DHT22;8595;52.542;11.974;2023-05-18T02:59:49;7.20;99.90
16958;DHT22;8595;52.542;11.974;2023-05-18T03:02:16;7.20;99.90
16958;DHT22;8595;52.542;11.974;2023-05-18T03:04:42;7.10;99.90
16958;DHT22;8595;52.542;11.974;2023-05-18T03:07:14;7.00;99.90
16958;DHT22;8595;52.542;11.974;2023-05-18T03:09:40;6.90;99.90
16958;DHT22;8595;52.542;11.974;2023-05-18T03:12:07;6.80;99.90
16958;DHT22;8595;52.542;11.974;2023-05-18T03:14:34;6.70;99.90
16958;DHT22;8595;52.542;11.974;2023-05-18T03:17:01;6.70;99.90
16958;DHT22;8595;52.542;11.974;2023-05-18T03:19:30;6.70;99.90
16958;DHT22;8595;52.542;11.974;2023-05-18T03:21:57;6.50;99.90
16958;DHT22;8595;52.542;11.974;2023-05-18T03:24:25;6.50;99.90
16958;DHT22;8595;52.542;11.974;2023-05-18T03:26:54;6.50;99.90
16958;DHT22;8595;52.542;11.974;2023-05-18T03:29:21;6.60;99.90
16958;DHT22;8595;52.542;11.974;2023-05-18T03:31:48;6.70;99.90
16958;DHT22;8595;52.542;11.974;2023-05-18T03:34:15;6.70;99.90
16958;DHT22;8595;52.542;11.974;2023-05-18T03:36:43;6.60;99.90
16958;DHT22;8595;52.542;11.974;2023-05-18T03:39:11;6.60;99.90
16958;DHT22;8595;52.542;11.974;2023-05-18T03:41:39;6.60;99.90
16958;DHT22;8595;52.542;11.974;2023-05-18T03:44:06;6.70;99.90
16958;DHT22;8595;52.542;11.974;2023-05-18T03:46:33;6.70;99.90
16958;DHT22;8595;52.542;11.974;2023-05-18T03:49:00;6.60;99.90
16958;DHT22;8595;52.542;11.974;2023-05-18T03:51:29;6.60;99.90
16958;DHT22;8595;52.542;11.974;2023-05-18T03:53:56;6.60;99.90
16958;DHT22;8595;52.542;11.974;2023-05-18T03:56:23;6.50;99.90
16958;DHT22;8595;52.542;11.974;2023-05-18T03:58:51;6.50;99.90
16958;DHT22;8595;52.542;11.974;2023-05-18T04:01:18;6.50;99.90
16958;DHT22;8595;52.542;11.974;2023-05-18T04:03:48;6.50;99.90
16958;DHT22;8595;52.542;11.974;2023-05-18T04:06:15;6.50;99.90
16958;DHT22;8595;52.542;11.974;2023-05-18T04:08:42;6.50;99.90
16958;DHT22;8595;52.542;11.974;2023-05-18T04:11:10;6.50;99.90
16958;DHT22;8595;52.542;11.974;2023-05-18T04:13:37;6.50;99.90
16958;DHT22;8595;52.542;11.974;2023-05-18T04:16:06;6.50;99.90
16958;DHT22;8595;52.542;11.974;2023-05-18T04:18:32;6.50;99.90
16958;DHT22;8595;52.542;11.974;2023-05-18T04:21:00;6.60;99.90
16958;DHT22;8595;52.542;11.974;2023-05-18T04:23:27;6.70;99.90
16958;DHT22;8595;52.542;11.974;2023-05-18T04:25:54;6.70;99.90
16958;DHT22;8595;52.542;11.974;2023-05-18T04:28:21;6.70;99.90
16958;DHT22;8595;52.542;11.974;2023-05-18T04:30:48;6.60;99.90
16958;DHT22;8595;52.542;11.974;2023-05-18T04:33:18;6.70;99.90
16958;DHT22;8595;52.542;11.974;2023-05-18T04:35:45;6.80;99.90
16958;DHT22;8595;52.542;11.974;2023-05-18T04:38:11;6.80;99.90
16958;DHT22;8595;52.542;11.974;2023-05-18T04:40:39;6.80;99.90
16958;DHT22;8595;52.542;11.974;2023-05-18T04:43:07;7.00;99.90
16958;DHT22;8595;52.542;11.974;2023-05-18T04:45:33;6.90;99.90
16958;DHT22;8595;52.542;11.974;2023-05-18T04:48:01;6.90;99.90
16958;DHT22;8595;52.542;11.974;2023-05-18T04:50:29;6.90;99.90
16958;DHT22;8595;52.542;11.974;2023-05-18T04:52:56;6.90;99.90
16958;DHT22;8595;52.542;11.974;2023-05-18T04:55:26;6.90;99.90
16958;DHT22;8595;52.542;11.974;2023-05-18T04:57:56;7.00;99.90
16958;DHT22;8595;52.542;11.974;2023-05-18T05:00:26;7.00;99.90
16958;DHT22;8595;52.542;11.974;2023-05-18T05:02:54;7.10;99.90
16958;DHT22;8595;52.542;11.974;2023-05-18T05:05:21;7.10;99.90
16958;DHT22;8595;52.542;11.974;2023-05-18T05:07:50;7.10;99.90
16958;DHT22;8595;52.542;11.974;2023-05-18T05:10:17;7.20;99.90
16958;DHT22;8595;52.542;11.974;2023-05-18T05:12:45;7.30;99.90
16958;DHT22;8595;52.542;11.974;2023-05-18T05:15:11;7.30;99.90
16958;DHT22;8595;52.542;11.974;2023-05-18T05:17:38;7.40;99.90
16958;DHT22;8595;52.542;11.974;2023-05-18T05:20:06;7.50;99.90
16958;DHT22;8595;52.542;11.974;2023-05-18T05:22:33;7.60;99.90
16958;DHT22;8595;52.542;11.974;2023-05-18T05:25:01;7.60;99.90
16958;DHT22;8595;52.542;11.974;2023-05-18T05:27:28;7.70;99.90
16958;DHT22;8595;52.542;11.974;2023-05-18T05:29:55;7.90;99.90
16958;DHT22;8595;52.542;11.974;2023-05-18T05:32:22;8.10;99.90
16958;DHT22;8595;52.542;11.974;2023-05-18T05:34:49;8.20;99.90
16958;DHT22;8595;52.542;11.974;2023-05-18T05:37:17;8.20;99.90
16958;DHT22;8595;52.542;11.974;2023-05-18T05:39:43;8.30;99.90
16958;DHT22;8595;52.542;11.974;2023-05-18T05:42:12;8.30;99.90
16958;DHT22;8595;52.542;11.974;2023-05-18T05:44:40;8.30;99.90
16958;DHT22;8595;52.542;11.974;2023-05-18T05:47:07;8.40;99.90
16958;DHT22;8595;52.542;11.974;2023-05-18T05:49:34;8.50;99.90
16958;DHT22;8595;52.542;11.974;2023-05-18T05:52:02;8.50;99.90
16958;DHT22;8595;52.542;11.974;2023-05-18T05:54:29;8.70;99.90
16958;DHT22;8595;52.542;11.974;2023-05-18T05:56:56;9.00;99.90
16958;DHT22;8595;52.542;11.974;2023-05-18T05:59:24;9.20;99.90
16958;DHT22;8595;52.542;11.974;2023-05-18T06:01:51;9.50;99.90
16958;DHT22;8595;52.542;11.974;2023-05-18T06:04:20;9.70;99.90
16958;DHT22;8595;52.542;11.974;2023-05-18T06:06:47;9.60;99.90
16958;DHT22;8595;52.542;11.974;2023-05-18T06:09:14;9.50;99.90
16958;DHT22;8595;52.542;11.974;2023-05-18T06:11:41;9.60;99.90
16958;DHT22;8595;52.542;11.974;2023-05-18T06:14:08;9.60;99.90
16958;DHT22;8595;52.542;11.974;2023-05-18T06:16:37;9.60;99.90
16958;DHT22;8595;52.542;11.974;2023-05-18T06:19:03;9.90;99.90
16958;DHT22;8595;52.542;11.974;2023-05-18T06:21:30;10.00;99.90
16958;DHT22;8595;52.542;11.974;2023-05-18T06:23:58;10.20;99.90
16958;DHT22;8595;52.542;11.974;2023-05-18T06:26:25;10.00;99.90
16958;DHT22;8595;52.542;11.974;2023-05-18T06:28:52;10.40;99.90
16958;DHT22;8595;52.542;11.974;2023-05-18T06:31:20;10.40;99.90
16958;DHT22;8595;52.542;11.974;2023-05-18T06:33:49;10.30;99.90
16958;DHT22;8595;52.542;11.974;2023-05-18T06:36:16;10.30;99.90
16958;DHT22;8595;52.542;11.974;2023-05-18T06:38:42;10.50;99.90
16958;DHT22;8595;52.542;11.974;2023-05-18T06:41:10;10.50;99.90
16958;DHT22;8595;52.542;11.974;2023-05-18T06:43:37;10.60;99.90
16958;DHT22;8595;52.542;11.974;2023-05-18T06:46:04;10.60;99.90
16958;DHT22;8595;52.542;11.974;2023-05-18T06:48:32;10.80;99.90
16958;DHT22;8595;52.542;11.974;2023-05-18T06:51:00;11.10;99.90
16958;DHT22;8595;52.542;11.974;2023-05-18T06:53:27;11.40;99.90
16958;DHT22;8595;52.542;11.974;2023-05-18T06:55:56;11.60;99.90
16958;DHT22;8595;52.542;11.974;2023-05-18T06:58:22;11.60;99.90
16958;DHT22;8595;52.542;11.974;2023-05-18T07:00:49;11.60;99.90
16958;DHT22;8595;52.542;11.974;2023-05-18T07:03:16;11.50;99.90
16958;DHT22;8595;52.542;11.974;2023-05-18T07:05:44;11.60;99.90
16958;DHT22;8595;52.542;11.974;2023-05-18T07:08:12;11.70;99.90
16958;DHT22;8595;52.542;11.974;2023-05-18T07:10:38;11.80;99.90
16958;DHT22;8595;52.542;11.974;2023-05-18T07:13:05;11.80;99.90
16958;DHT22;8595;52.542;11.974;2023-05-18T07:15:32;11.90;99.90
16958;DHT22;8595;52.542;11.974;2023-05-18T07:17:59;12.10;99.90
16958;DHT22;8595;52.542;11.974;2023-05-18T07:20:25;12.20;99.90
16958;DHT22;8595;52.542;11.974;2023-05-18T07:22:52;12.40;99.90
16958;DHT22;8595;52.542;11.974;2023-05-18T07:25:22;12.50;99.90
16958;DHT22;8595;52.542;11.974;2023-05-18T07:27:49;12.50;99.90
16958;DHT22;8595;52.542;11.974;2023-05-18T07:30:17;12.40;99.90
16958;DHT22;8595;52.542;11.974;2023-05-18T07:32:44;12.60;99.90
16958;DHT22;8595;52.542;11.974;2023-05-18T07:35:11;12.80;99.90
16958;DHT22;8595;52.542;11.974;2023-05-18T07:37:38;12.60;99.90
16958;DHT22;8595;52.542;11.974;2023-05-18T07:40:06;12.40;99.90
16958;DHT22;8595;52.542;11.974;2023-05-18T07:45:03;13.00;99.90
16958;DHT22;8595;52.542;11.974;2023-05-18T07:47:30;13.40;99.90
16958;DHT22;8595;52.542;11.974;2023-05-18T07:49:58;13.70;99.90
16958;DHT22;8595;52.542;11.974;2023-05-18T07:52:25;13.80;99.90
16958;DHT22;8595;52.542;11.974;2023-05-18T07:54:54;13.80;99.90
16958;DHT22;8595;52.542;11.974;2023-05-18T07:57:21;13.70;99.90
16958;DHT22;8595;52.542;11.974;2023-05-18T07:59:49;13.70;99.90
16958;DHT22;8595;52.542;11.974;2023-05-18T08:02:16;13.90;99.90
16958;DHT22;8595;52.542;11.974;2023-05-18T08:04:45;13.90;99.90
16958;DHT22;8595;52.542;11.974;2023-05-18T08:07:12;14.10;99.90
16958;DHT22;8595;52.542;11.974;2023-05-18T08:09:39;13.80;99.90
16958;DHT22;8595;52.542;11.974;2023-05-18T08:12:07;14.00;99.90
16958;DHT22;8595;52.542;11.974;2023-05-18T08:14:34;14.30;99.90
16958;DHT22;8595;52.542;11.974;2023-05-18T08:17:03;14.80;99.90
16958;DHT22;8595;52.542;11.974;2023-05-18T08:19:31;15.00;99.90
16958;DHT22;8595;52.542;11.974;2023-05-18T08:21:57;15.20;99.90
16958;DHT22;8595;52.542;11.974;2023-05-18T08:24:24;15.30;99.90
16958;DHT22;8595;52.542;11.974;2023-05-18T08:26:51;15.40;99.90
16958;DHT22;8595;52.542;11.974;2023-05-18T08:29:18;15.50;99.90
16958;DHT22;8595;52.542;11.974;2023-05-18T08:31:45;15.20;99.90
16958;DHT22;8595;52.542;11.974;2023-05-18T08:34:13;15.20;99.90
16958;DHT22;8595;52.542;11.974;2023-05-18T08:36:41;15.20;99.90
16958;DHT22;8595;52.542;11.974;2023-05-18T08:39:09;15.10;99.90
16958;DHT22;8595;52.542;11.974;2023-05-18T08:41:39;15.10;99.90
16958;DHT22;8595;52.542;11.974;2023-05-18T08:44:10;15.00;99.90
16958;DHT22;8595;52.542;11.974;2023-05-18T08:46:39;14.90;99.90
16958;DHT22;8595;52.542;11.974;2023-05-18T08:49:09;15.10;99.90
16958;DHT22;8595;52.542;11.974;2023-05-18T08:51:38;14.90;99.90
16958;DHT22;8595;52.542;11.974;2023-05-18T08:54:07;15.00;99.90
16958;DHT22;8595;52.542;11.974;2023-05-18T08:56:35;15.30;99.90
16958;DHT22;8595;52.542;11.974;2023-05-18T08:59:04;15.60;99.90
16958;DHT22;8595;52.542;11.974;2023-05-18T09:01:32;15.60;99.90
16958;DHT22;8595;52.542;11.974;2023-05-18T09:04:01;15.80;99.90
16958;DHT22;8595;52.542;11.974;2023-05-18T09:06:28;15.90;99.90
16958;DHT22;8595;52.542;11.974;2023-05-18T09:08:56;16.00;99.90
16958;DHT22;8595;52.542;11.974;2023-05-18T09:11:25;16.20;99.90
16958;DHT22;8595;52.542;11.974;2023-05-18T09:13:53;16.20;99.90
16958;DHT22;8595;52.542;11.974;2023-05-18T09:16:20;16.40;99.90
16958;DHT22;8595;52.542;11.974;2023-05-18T09:18:47;16.40;99.90
16958;DHT22;8595;52.542;11.974;2023-05-18T09:21:14;16.30;99.90
16958;DHT22;8595;52.542;11.974;2023-05-18T09:23:41;16.10;99.90
16958;DHT22;8595;52.542;11.974;2023-05-18T09:26:10;16.00;99.90
16958;DHT22;8595;52.542;11.974;2023-05-18T09:28:40;15.90;99.90
16958;DHT22;8595;52.542;11.974;2023-05-18T09:31:08;15.70;99.90
16958;DHT22;8595;52.542;11.974;2023-05-18T09:33:38;15.50;99.90
16958;DHT22;8595;52.542;11.974;2023-05-18T09:36:06;15.30;99.90
16958;DHT22;8595;52.542;11.974;2023-05-18T09:38:36;15.20;99.90
16958;DHT22;8595;52.542;11.974;2023-05-18T09:41:03;15.40;99.90
16958;DHT22;8595;52.542;11.974;2023-05-18T09:43:36;16.00;99.90
16958;DHT22;8595;52.542;11.974;2023-05-18T09:46:05;16.40;99.90
16958;DHT22;8595;52.542;11.974;2023-05-18T09:48:34;16.50;99.90
16958;DHT22;8595;52.542;11.974;2023-05-18T09:51:03;16.30;99.90
16958;DHT22;8595;52.542;11.974;2023-05-18T09:53:31;16.60;99.90
16958;DHT22;8595;52.542;11.974;2023-05-18T09:56:03;16.70;99.90
16958;DHT22;8595;52.542;11.974;2023-05-18T09:58:31;17.20;99.90
16958;DHT22;8595;52.542;11.974;2023-05-18T10:01:01;18.10;99.90
16958;DHT22;8595;52.542;11.974;2023-05-18T10:03:32;19.40;99.90
16958;DHT22;8595;52.542;11.974;2023-05-18T10:06:03;19.80;99.90
16958;DHT22;8595;52.542;11.974;2023-05-18T10:08:31;20.00;99.90
16958;DHT22;8595;52.542;11.974;2023-05-18T10:10:58;19.30;99.90
16958;DHT22;8595;52.542;11.974;2023-05-18T10:13:27;18.40;99.90
16958;DHT22;8595;52.542;11.974;2023-05-18T10:15:57;17.60;99.90
16958;DHT22;8595;52.542;11.974;2023-05-18T10:18:26;17.30;99.90
16958;DHT22;8595;52.542;11.974;2023-05-18T10:20:54;17.10;99.90
16958;DHT22;8595;52.542;11.974;2023-05-18T10:23:23;16.90;99.90
16958;DHT22;8595;52.542;11.974;2023-05-18T10:25:51;16.90;99.90
16958;DHT22;8595;52.542;11.974;2023-05-18T10:28:19;16.20;99.90
16958;DHT22;8595;52.542;11.974;2023-05-18T10:30:51;16.00;99.90
16958;DHT22;8595;52.542;11.974;2023-05-18T10:33:20;17.10;99.90
16958;DHT22;8595;52.542;11.974;2023-05-18T10:35:49;17.90;99.90
16958;DHT22;8595;52.542;11.974;2023-05-18T10:38:20;19.10;99.90
16958;DHT22;8595;52.542;11.974;2023-05-18T10:40:49;20.30;99.90
16958;DHT22;8595;52.542;11.974;2023-05-18T10:43:18;20.80;99.90
16958;DHT22;8595;52.542;11.974;2023-05-18T10:45:47;20.40;99.90
16958;DHT22;8595;52.542;11.974;2023-05-18T10:48:15;20.20;99.90
16958;DHT22;8595;52.542;11.974;2023-05-18T10:50:44;19.70;99.90
16958;DHT22;8595;52.542;11.974;2023-05-18T10:53:16;18.80;99.90
16958;DHT22;8595;52.542;11.974;2023-05-18T10:55:43;18.50;99.90
16958;DHT22;8595;52.542;11.974;2023-05-18T10:58:12;18.40;99.90
16958;DHT22;8595;52.542;11.974;2023-05-18T11:00:41;17.80;99.90
16958;DHT22;8595;52.542;11.974;2023-05-18T11:03:10;17.80;99.90
16958;DHT22;8595;52.542;11.974;2023-05-18T11:05:39;18.20;99.90
16958;DHT22;8595;52.542;11.974;2023-05-18T11:08:06;19.30;99.90
16958;DHT22;8595;52.542;11.974;2023-05-18T11:10:39;19.80;99.90
16958;DHT22;8595;52.542;11.974;2023-05-18T11:13:07;20.10;99.90
16958;DHT22;8595;52.542;11.974;2023-05-18T11:16:03;19.60;99.90
16958;DHT22;8595;52.542;11.974;2023-05-18T11:18:41;19.00;99.90
16958;DHT22;8595;52.542;11.974;2023-05-18T11:21:29;18.90;99.90
16958;DHT22;8595;52.542;11.974;2023-05-18T11:24:23;19.20;99.90
16958;DHT22;8595;52.542;11.974;2023-05-18T11:26:52;19.00;99.90
16958;DHT22;8595;52.542;11.974;2023-05-18T11:29:22;19.30;99.90
16958;DHT22;8595;52.542;11.974;2023-05-18T11:31:51;19.20;99.90
16958;DHT22;8595;52.542;11.974;2023-05-18T11:34:40;18.50;99.90
16958;DHT22;8595;52.542;11.974;2023-05-18T11:37:09;18.20;99.90
16958;DHT22;8595;52.542;11.974;2023-05-18T11:39:37;17.80;99.90
16958;DHT22;8595;52.542;11.974;2023-05-18T11:42:09;17.80;99.90
16958;DHT22;8595;52.542;11.974;2023-05-18T11:44:38;17.70;99.90
16958;DHT22;8595;52.542;11.974;2023-05-18T11:47:08;18.30;99.90
16958;DHT22;8595;52.542;11.974;2023-05-18T11:49:42;18.80;99.90
16958;DHT22;8595;52.542;11.974;2023-05-18T11:52:15;19.20;99.90
16958;DHT22;8595;52.542;11.974;2023-05-18T11:54:44;19.80;99.90
16958;DHT22;8595;52.542;11.974;2023-05-18T11:57:14;20.70;99.90
16958;DHT22;8595;52.542;11.974;2023-05-18T11:59:43;21.10;99.90
16958;DHT22;8595;52.542;11.974;2023-05-18T12:02:12;22.00;99.90
16958;DHT22;8595;52.542;11.974;2023-05-18T12:04:43;23.00;99.90
16958;DHT22;8595;52.542;11.974;2023-05-18T12:07:11;23.70;99.90
16958;DHT22;8595;52.542;11.974;2023-05-18T12:09:39;23.70;97.90
16958;DHT22;8595;52.542;11.974;2023-05-18T12:12:07;23.20;96.70
16958;DHT22;8595;52.542;11.974;2023-05-18T12:14:37;21.50;97.00
16958;DHT22;8595;52.542;11.974;2023-05-18T12:17:05;20.40;96.70
16958;DHT22;8595;52.542;11.974;2023-05-18T12:19:37;20.30;97.80
16958;DHT22;8595;52.542;11.974;2023-05-18T12:22:04;20.60;97.50
16958;DHT22;8595;52.542;11.974;2023-05-18T12:24:33;21.20;99.50
16958;DHT22;8595;52.542;11.974;2023-05-18T12:27:00;22.20;98.30
16958;DHT22;8595;52.542;11.974;2023-05-18T12:29:29;23.00;97.30
16958;DHT22;8595;52.542;11.974;2023-05-18T12:31:57;23.40;95.80
16958;DHT22;8595;52.542;11.974;2023-05-18T12:34:27;24.20;95.40
16958;DHT22;8595;52.542;11.974;2023-05-18T12:36:54;24.10;93.80
16958;DHT22;8595;52.542;11.974;2023-05-18T12:39:23;23.80;93.20
16958;DHT22;8595;52.542;11.974;2023-05-18T12:41:50;23.20;93.60
16958;DHT22;8595;52.542;11.974;2023-05-18T12:44:17;23.60;93.20
16958;DHT22;8595;52.542;11.974;2023-05-18T12:46:43;23.20;92.50
16958;DHT22;8595;52.542;11.974;2023-05-18T12:49:13;22.00;92.30
16958;DHT22;8595;52.542;11.974;2023-05-18T12:51:40;22.60;94.20
16958;DHT22;8595;52.542;11.974;2023-05-18T12:54:07;23.60;93.40
16958;DHT22;8595;52.542;11.974;2023-05-18T12:56:51;23.10;93.60
16958;DHT22;8595;52.542;11.974;2023-05-18T12:59:23;23.70;92.60
16958;DHT22;8595;52.542;11.974;2023-05-18T13:01:50;23.40;93.80
16958;DHT22;8595;52.542;11.974;2023-05-18T13:04:19;23.40;92.10
16958;DHT22;8595;52.542;11.974;2023-05-18T13:06:45;24.00;92.80
16958;DHT22;8595;52.542;11.974;2023-05-18T13:09:13;23.70;91.80
16958;DHT22;8595;52.542;11.974;2023-05-18T13:11:40;24.00;92.00
16958;DHT22;8595;52.542;11.974;2023-05-18T13:14:11;23.90;90.50
16958;DHT22;8595;52.542;11.974;2023-05-18T13:16:44;23.10;91.10
16958;DHT22;8595;52.542;11.974;2023-05-18T13:19:15;23.10;91.10
16958;DHT22;8595;52.542;11.974;2023-05-18T13:21:44;22.30;90.80
16958;DHT22;8595;52.542;11.974;2023-05-18T13:24:12;21.40;91.70
16958;DHT22;8595;52.542;11.974;2023-05-18T13:26:39;21.10;92.80
16958;DHT22;8595;52.542;11.974;2023-05-18T13:29:06;21.00;93.40
16958;DHT22;8595;52.542;11.974;2023-05-18T13:31:33;21.00;92.30
16958;DHT22;8595;52.542;11.974;2023-05-18T13:34:00;21.00;92.70
16958;DHT22;8595;52.542;11.974;2023-05-18T13:36:27;22.00;93.20
16958;DHT22;8595;52.542;11.974;2023-05-18T13:38:59;23.20;93.00
16958;DHT22;8595;52.542;11.974;2023-05-18T13:41:29;23.40;90.50
16958;DHT22;8595;52.542;11.974;2023-05-18T13:43:56;22.60;91.10
16958;DHT22;8595;52.542;11.974;2023-05-18T13:46:23;22.50;92.20
16958;DHT22;8595;52.542;11.974;2023-05-18T13:48:50;22.80;91.40
16958;DHT22;8595;52.542;11.974;2023-05-18T13:51:16;23.20;91.80
16958;DHT22;8595;52.542;11.974;2023-05-18T13:53:43;22.80;91.80
16958;DHT22;8595;52.542;11.974;2023-05-18T13:56:11;22.50;91.50
16958;DHT22;8595;52.542;11.974;2023-05-18T13:58:38;22.00;91.70
16958;DHT22;8595;52.542;11.974;2023-05-18T14:01:06;22.20;92.20
16958;DHT22;8595;52.542;11.974;2023-05-18T14:03:34;22.90;91.30
16958;DHT22;8595;52.542;11.974;2023-05-18T14:06:01;21.80;91.60
16958;DHT22;8595;52.542;11.974;2023-05-18T14:08:28;21.80;91.70
16958;DHT22;8595;52.542;11.974;2023-05-18T14:10:55;21.80;91.70
16958;DHT22;8595;52.542;11.974;2023-05-18T14:13:23;22.10;91.70
16958;DHT22;8595;52.542;11.974;2023-05-18T14:15:49;22.40;91.80
16958;DHT22;8595;52.542;11.974;2023-05-18T14:18:16;22.90;90.70
16958;DHT22;8595;52.542;11.974;2023-05-18T14:20:43;23.70;91.40
16958;DHT22;8595;52.542;11.974;2023-05-18T14:23:11;24.30;90.30
16958;DHT22;8595;52.542;11.974;2023-05-18T14:25:38;24.10;89.40
16958;DHT22;8595;52.542;11.974;2023-05-18T14:28:05;24.00;89.30
16958;DHT22;8595;52.542;11.974;2023-05-18T14:30:33;23.70;89.30
16958;DHT22;8595;52.542;11.974;2023-05-18T14:33:00;23.80;90.70
16958;DHT22;8595;52.542;11.974;2023-05-18T14:35:26;23.50;90.00
16958;DHT22;8595;52.542;11.974;2023-05-18T14:37:53;22.50;89.30
16958;DHT22;8595;52.542;11.974;2023-05-18T14:40:20;21.80;90.80
16958;DHT22;8595;52.542;11.974;2023-05-18T14:42:47;21.90;90.70
16958;DHT22;8595;52.542;11.974;2023-05-18T14:45:14;22.70;91.70
16958;DHT22;8595;52.542;11.974;2023-05-18T14:47:43;23.50;90.30
16958;DHT22;8595;52.542;11.974;2023-05-18T14:50:09;23.80;88.60
16958;DHT22;8595;52.542;11.974;2023-05-18T14:52:36;23.70;88.30
16958;DHT22;8595;52.542;11.974;2023-05-18T14:55:03;22.60;88.70
16958;DHT22;8595;52.542;11.974;2023-05-18T14:57:30;22.50;90.40
16958;DHT22;8595;52.542;11.974;2023-05-18T14:59:57;22.40;90.20
16958;DHT22;8595;52.542;11.974;2023-05-18T15:02:24;23.30;90.70
16958;DHT22;8595;52.542;11.974;2023-05-18T15:04:52;23.50;88.90
16958;DHT22;8595;52.542;11.974;2023-05-18T15:07:19;23.60;88.10
16958;DHT22;8595;52.542;11.974;2023-05-18T15:09:46;23.40;90.10
16958;DHT22;8595;52.542;11.974;2023-05-18T15:12:12;23.80;86.80
16958;DHT22;8595;52.542;11.974;2023-05-18T15:14:41;24.20;87.60
16958;DHT22;8595;52.542;11.974;2023-05-18T15:17:08;23.10;85.60
16958;DHT22;8595;52.542;11.974;2023-05-18T15:19:36;23.50;86.90
16958;DHT22;8595;52.542;11.974;2023-05-18T15:22:04;24.30;86.40
16958;DHT22;8595;52.542;11.974;2023-05-18T15:24:31;24.50;84.00
16958;DHT22;8595;52.542;11.974;2023-05-18T15:26:58;24.60;84.30
16958;DHT22;8595;52.542;11.974;2023-05-18T15:29:28;24.60;86.40
16958;DHT22;8595;52.542;11.974;2023-05-18T15:31:54;24.80;85.20
16958;DHT22;8595;52.542;11.974;2023-05-18T15:34:21;24.70;84.90
16958;DHT22;8595;52.542;11.974;2023-05-18T15:36:48;24.20;84.70
16958;DHT22;8595;52.542;11.974;2023-05-18T15:39:16;24.30;85.10
16958;DHT22;8595;52.542;11.974;2023-05-18T15:41:43;24.40;82.50
16958;DHT22;8595;52.542;11.974;2023-05-18T15:44:09;24.00;84.20
16958;DHT22;8595;52.542;11.974;2023-05-18T15:46:36;23.60;82.10